Terminal Aerodrome Forecast
Issued by NWS

Home | Current Version | Previous Version | Text Only | Print | Product List | Glossary On
Versions: 1 2 3 4 5 6 7 8 9 10 11 12 13 14 15 16 17
381
FTUS46 KLOX 270532
TAFWJF
TAF
KWJF 270532Z 2706/2806 26015G25KT P6SM SCT150
     FM271200 26025G35KT P6SM SCT200
     FM271700 28020G30KT P6SM SKC
     FM272100 28030G40KT P6SM SKC
     FM280300 28024KT P6SM SKC=

USA.gov is the U.S. government's official web portal to all federal, state and local government web resources and services.